createdAt,value
2022-08-03T00:00:20.359Z,20.45
2022-08-03T00:02:47.076Z,20.38
2022-08-03T00:05:13.580Z,20.34
2022-08-03T00:07:41.180Z,20.27
2022-08-03T00:10:08.119Z,20.28
2022-08-03T00:12:36.323Z,20.26
2022-08-03T00:15:03.172Z,20.17
2022-08-03T00:17:52.131Z,20.12
2022-08-03T00:20:19.982Z,19.99
2022-08-03T00:22:46.533Z,20.02
2022-08-03T00:25:13.375Z,19.94
2022-08-03T00:27:39.877Z,19.85
2022-08-03T00:30:07.295Z,19.84
2022-08-03T00:32:33.889Z,19.78
2022-08-03T00:35:00.414Z,19.71
2022-08-03T00:37:41.704Z,19.62
2022-08-03T00:40:11.393Z,19.61
2022-08-03T00:42:58.825Z,19.59
2022-08-03T00:45:36.745Z,19.59
2022-08-03T00:48:04.898Z,19.66
2022-08-03T00:50:35.900Z,19.62
2022-08-03T00:53:06.289Z,19.59
2022-08-03T00:55:33.050Z,19.59
2022-08-03T00:57:59.702Z,19.58
2022-08-03T01:00:27.665Z,19.51
2022-08-03T01:02:55.793Z,19.41
2022-08-03T01:05:22.661Z,19.36
2022-08-03T01:08:25.924Z,19.37
2022-08-03T01:12:01.193Z,19.36
2022-08-03T01:14:38.368Z,19.38
2022-08-03T01:17:16.928Z,19.33
2022-08-03T01:19:49.120Z,19.24
2022-08-03T01:22:44.884Z,19.23
2022-08-03T01:25:23.424Z,19.19
2022-08-03T01:28:11.368Z,19.12
2022-08-03T01:30:42.048Z,19.01
2022-08-03T01:33:35.052Z,18.92
2022-08-03T01:36:05.465Z,18.92
2022-08-03T01:38:42.048Z,18.94
2022-08-03T01:41:13.711Z,18.88
2022-08-03T01:44:28.304Z,18.79
2022-08-03T01:46:32.865Z,18.84
2022-08-03T01:49:01.204Z,18.74
2022-08-03T01:51:58.506Z,18.68
2022-08-03T01:54:27.463Z,18.61
2022-08-03T01:56:57.518Z,18.50
2022-08-03T01:59:26.332Z,18.44
2022-08-03T02:02:28.835Z,18.40
2022-08-03T02:04:42.533Z,18.33
2022-08-03T02:07:10.427Z,18.29
2022-08-03T02:09:41.505Z,18.32
2022-08-03T02:12:13.964Z,18.33
2022-08-03T02:14:42.322Z,18.32
2022-08-03T02:17:10.593Z,18.38
2022-08-03T02:19:38.590Z,18.36
2022-08-03T02:22:08.433Z,18.29
2022-08-03T02:24:35.145Z,18.22
2022-08-03T02:27:06.157Z,18.19
2022-08-03T02:29:39.368Z,18.22
2022-08-03T02:32:10.489Z,18.30
2022-08-03T02:34:39.448Z,18.25
2022-08-03T02:37:08.414Z,18.27
2022-08-03T02:39:36.836Z,18.33
2022-08-03T02:42:05.571Z,18.31
2022-08-03T02:44:34.741Z,18.25
2022-08-03T02:47:05.146Z,18.21
2022-08-03T02:49:41.127Z,18.12
2022-08-03T02:52:19.872Z,18.03
2022-08-03T02:54:49.189Z,17.93
2022-08-03T02:57:17.354Z,17.87
2022-08-03T02:59:44.649Z,17.90
2022-08-03T03:02:12.661Z,17.78
2022-08-03T03:04:41.207Z,17.63
2022-08-03T03:07:28.853Z,17.52
2022-08-03T03:09:58.353Z,17.00
2022-08-03T03:12:26.370Z,16.98
2022-08-03T03:14:52.903Z,17.01
2022-08-03T03:17:21.137Z,17.07
2022-08-03T03:19:51.051Z,17.08
2022-08-03T03:22:18.774Z,17.17
2022-08-03T03:24:47.265Z,17.24
2022-08-03T03:27:16.495Z,17.31
2022-08-03T03:29:43.920Z,17.25
2022-08-03T03:32:10.782Z,17.18
2022-08-03T03:34:37.733Z,17.27
2022-08-03T03:37:05.235Z,17.35
2022-08-03T03:39:32.043Z,17.39
2022-08-03T03:42:00.226Z,17.30
2022-08-03T03:44:28.882Z,17.29
2022-08-03T03:46:57.795Z,17.34
2022-08-03T03:49:24.889Z,17.28
2022-08-03T03:51:55.578Z,17.28
2022-08-03T03:54:22.147Z,17.22
2022-08-03T03:56:52.365Z,17.18
2022-08-03T03:59:18.939Z,17.23
2022-08-03T04:01:45.879Z,17.34
2022-08-03T04:04:31.021Z,17.40
2022-08-03T04:07:15.777Z,17.38
2022-08-03T04:10:14.423Z,17.40
2022-08-03T04:12:49.872Z,17.37
2022-08-03T04:15:20.339Z,17.36
2022-08-03T04:17:48.183Z,17.40
2022-08-03T04:20:15.741Z,17.46
2022-08-03T04:22:42.615Z,17.46
2022-08-03T04:25:16.892Z,17.45
2022-08-03T04:27:43.990Z,17.45
2022-08-03T04:30:11.775Z,17.49
2022-08-03T04:32:44.148Z,17.56
2022-08-03T04:35:12.459Z,17.55
2022-08-03T04:37:43.172Z,17.56
2022-08-03T04:40:14.857Z,17.58
2022-08-03T04:42:43.434Z,17.56
2022-08-03T04:45:14.994Z,17.51
2022-08-03T04:47:42.442Z,17.57
2022-08-03T04:50:15.034Z,17.45
2022-08-03T04:52:43.560Z,17.46
2022-08-03T04:55:10.374Z,17.60
2022-08-03T04:57:37.023Z,17.66
2022-08-03T05:13:12.109Z,18.01
2022-08-03T05:15:43.173Z,18.01
2022-08-03T05:18:13.997Z,18.05
2022-08-03T05:20:40.858Z,18.06
2022-08-03T05:23:07.397Z,18.08
2022-08-03T05:25:33.863Z,18.06
2022-08-03T05:28:00.670Z,18.16
2022-08-03T05:30:33.436Z,18.27
2022-08-03T05:33:02.264Z,18.29
2022-08-03T05:36:00.984Z,18.27
2022-08-03T05:38:24.244Z,18.36
2022-08-03T05:41:22.581Z,18.44
2022-08-03T05:43:50.836Z,18.47
2022-08-03T05:46:17.492Z,18.54
2022-08-03T05:48:46.755Z,18.57
2022-08-03T05:51:13.489Z,18.63
2022-08-03T05:53:41.714Z,18.63
2022-08-03T05:56:13.583Z,18.75
2022-08-03T05:58:42.267Z,18.84
2022-08-03T06:01:08.883Z,18.90
2022-08-03T06:03:38.013Z,18.96
2022-08-03T06:06:04.613Z,19.09
2022-08-03T06:08:31.170Z,19.19
2022-08-03T06:11:00.760Z,19.28
2022-08-03T06:13:27.272Z,19.37
2022-08-03T06:15:53.812Z,19.49
2022-08-03T06:18:20.440Z,19.63
2022-08-03T06:20:49.307Z,19.74
2022-08-03T06:23:17.991Z,19.79
2022-08-03T06:25:45.405Z,19.91
2022-08-03T06:31:01.007Z,20.13
2022-08-03T06:34:30.151Z,20.21
2022-08-03T06:36:14.981Z,20.32
2022-08-03T06:38:41.549Z,20.42
2022-08-03T06:41:08.097Z,20.53
2022-08-03T06:43:38.006Z,20.69
2022-08-03T06:46:24.714Z,20.80
2022-08-03T06:48:53.148Z,20.92
2022-08-03T06:51:19.858Z,21.12
2022-08-03T06:53:46.544Z,21.23
2022-08-03T06:56:13.496Z,21.40
2022-08-03T06:58:40.173Z,21.51
2022-08-03T07:01:09.297Z,21.61
2022-08-03T07:03:35.874Z,21.75
2022-08-03T07:06:18.722Z,21.97
2022-08-03T07:08:45.289Z,22.16
2022-08-03T07:11:11.956Z,22.32
2022-08-03T07:13:41.163Z,22.51
2022-08-03T07:16:07.731Z,22.67
2022-08-03T07:18:34.356Z,22.87
2022-08-03T07:21:00.864Z,23.07
2022-08-03T07:23:27.343Z,23.22
2022-08-03T07:25:53.781Z,23.44
2022-08-03T07:28:20.727Z,23.58
2022-08-03T07:30:47.776Z,23.69
2022-08-03T07:33:15.081Z,23.83
2022-08-03T07:35:49.505Z,23.99
2022-08-03T07:38:16.340Z,24.19
2022-08-03T07:43:13.100Z,24.54
2022-08-03T07:45:39.712Z,24.66
2022-08-03T07:48:11.659Z,24.78
2022-08-03T07:50:38.968Z,24.86
2022-08-03T07:53:05.805Z,25.03
2022-08-03T07:55:32.701Z,25.25
2022-08-03T07:58:10.065Z,25.52
2022-08-03T08:00:37.059Z,25.75
2022-08-03T08:03:04.729Z,25.95
2022-08-03T08:05:33.957Z,26.08
2022-08-03T08:08:03.990Z,26.31
2022-08-03T08:10:31.235Z,26.51
2022-08-03T08:13:00.105Z,26.69
2022-08-03T08:15:26.717Z,26.89
2022-08-03T08:17:56.552Z,26.99
2022-08-03T08:20:31.327Z,27.06
2022-08-03T08:23:03.635Z,27.25
2022-08-03T08:25:50.321Z,27.37
2022-08-03T08:28:32.947Z,27.58
2022-08-03T08:31:02.279Z,27.72
2022-08-03T08:33:42.081Z,27.82
2022-08-03T08:36:15.951Z,28.09
2022-08-03T08:38:44.557Z,28.34
2022-08-03T08:41:12.453Z,28.63
2022-08-03T08:43:42.219Z,28.94
2022-08-03T08:46:23.145Z,29.04
2022-08-03T08:48:51.833Z,29.06
2022-08-03T08:51:20.295Z,29.07
2022-08-03T08:53:51.448Z,29.24
2022-08-03T08:56:26.551Z,29.53
2022-08-03T08:59:01.166Z,29.84
2022-08-03T09:01:33.777Z,29.79
2022-08-03T09:04:00.381Z,29.95
2022-08-03T09:06:26.984Z,30.09
2022-08-03T09:08:54.149Z,30.36
2022-08-03T09:12:01.052Z,30.54
2022-08-03T09:14:36.982Z,30.54
2022-08-03T09:17:06.052Z,30.49
2022-08-03T09:19:37.656Z,30.74
2022-08-03T09:22:16.624Z,30.89
2022-08-03T09:25:23.233Z,30.95
2022-08-03T09:27:50.461Z,31.25
2022-08-03T09:30:33.806Z,31.45
2022-08-03T09:33:08.371Z,31.67
2022-08-03T09:35:54.208Z,31.71
2022-08-03T09:38:26.481Z,31.97
2022-08-03T09:40:59.515Z,31.99
2022-08-03T09:43:28.555Z,32.20
2022-08-03T09:46:07.298Z,32.14
2022-08-03T09:48:35.013Z,32.27
2022-08-03T09:51:14.142Z,32.32
2022-08-03T09:53:59.323Z,32.31
2022-08-03T09:56:47.892Z,32.57
2022-08-03T09:59:24.209Z,32.63
2022-08-03T10:01:53.350Z,32.83
2022-08-03T10:04:20.391Z,33.03
2022-08-03T10:07:06.193Z,32.97
2022-08-03T10:09:35.976Z,32.87
2022-08-03T10:12:13.538Z,32.86
2022-08-03T10:14:45.303Z,32.83
2022-08-03T10:17:14.443Z,32.87
2022-08-03T10:19:43.793Z,32.77
2022-08-03T10:22:14.038Z,32.50
2022-08-03T10:25:00.996Z,32.69
2022-08-03T10:27:43.400Z,32.94
2022-08-03T10:30:11.723Z,32.93
2022-08-03T10:32:44.809Z,33.01
2022-08-03T10:35:19.637Z,33.25
2022-08-03T10:38:23.087Z,33.04
2022-08-03T10:40:58.778Z,32.98
2022-08-03T10:43:30.848Z,32.75
2022-08-03T10:45:58.108Z,32.54
2022-08-03T10:48:30.737Z,32.79
2022-08-03T10:50:57.670Z,33.09
2022-08-03T10:53:40.348Z,33.03
2022-08-03T10:56:49.670Z,33.07
2022-08-03T10:59:27.529Z,33.34
2022-08-03T11:01:58.651Z,33.33
2022-08-03T11:04:29.585Z,33.27
2022-08-03T11:07:28.390Z,33.22
2022-08-03T11:09:56.547Z,33.34
2022-08-03T11:12:30.529Z,33.30
2022-08-03T11:15:04.601Z,33.50
2022-08-03T11:17:32.849Z,33.81
2022-08-03T11:19:59.773Z,34.02
2022-08-03T11:22:50.955Z,34.02
2022-08-03T11:25:54.798Z,34.35
2022-08-03T11:28:29.067Z,34.05
2022-08-03T11:30:57.097Z,33.82
2022-08-03T11:33:31.133Z,34.08
2022-08-03T11:36:02.516Z,34.48
2022-08-03T11:38:29.138Z,34.81
2022-08-03T11:40:58.441Z,34.29
2022-08-03T11:43:33.084Z,34.35
2022-08-03T11:46:06.838Z,34.62
2022-08-03T11:48:37.476Z,34.74
2022-08-03T11:51:06.546Z,34.74
2022-08-03T11:53:33.575Z,34.66
2022-08-03T11:56:12.978Z,34.81
2022-08-03T11:59:16.737Z,34.68
2022-08-03T12:01:36.649Z,35.01
2022-08-03T12:04:10.776Z,35.04
2022-08-03T12:06:55.794Z,35.18
2022-08-03T12:09:22.512Z,35.52
2022-08-03T12:11:56.223Z,35.46
2022-08-03T12:14:50.294Z,35.15
2022-08-03T12:17:15.102Z,35.29
2022-08-03T12:19:43.137Z,35.37
2022-08-03T12:22:09.669Z,35.38
2022-08-03T12:24:47.490Z,35.37
2022-08-03T12:27:24.224Z,35.26
2022-08-03T12:29:57.251Z,35.21
2022-08-03T12:32:26.801Z,35.05
2022-08-03T12:34:53.442Z,35.13
2022-08-03T12:37:23.202Z,35.34
2022-08-03T12:40:02.178Z,35.39
2022-08-03T12:42:38.424Z,35.58
2022-08-03T12:45:28.154Z,35.81
2022-08-03T12:48:02.182Z,35.84
2022-08-03T12:50:34.095Z,35.44
2022-08-03T12:53:03.214Z,35.33
2022-08-03T12:55:57.244Z,35.28
2022-08-03T12:58:34.030Z,35.30
2022-08-03T13:01:01.849Z,35.48
2022-08-03T13:03:50.343Z,35.71
2022-08-03T13:06:28.435Z,35.86
2022-08-03T13:09:06.314Z,36.03
2022-08-03T13:11:55.507Z,36.16
2022-08-03T13:14:20.741Z,35.98
2022-08-03T13:16:51.405Z,36.06
2022-08-03T13:19:18.100Z,36.09
2022-08-03T13:22:01.716Z,36.06
2022-08-03T13:24:31.717Z,35.33
2022-08-03T13:26:59.333Z,35.46
2022-08-03T13:29:26.211Z,35.69
2022-08-03T13:31:52.868Z,35.93
2022-08-03T13:34:23.045Z,35.68
2022-08-03T13:39:57.244Z,35.50
2022-08-03T13:42:28.601Z,35.87
2022-08-03T13:44:55.286Z,35.99
2022-08-03T13:47:22.156Z,35.90
2022-08-03T13:49:54.361Z,35.90
2022-08-03T13:52:33.269Z,35.87
2022-08-03T13:55:00.578Z,35.78
2022-08-03T13:58:02.670Z,35.32
2022-08-03T14:00:26.524Z,35.19
2022-08-03T14:03:01.846Z,35.26
2022-08-03T14:05:33.535Z,35.39
2022-08-03T14:08:04.168Z,35.38
2022-08-03T14:10:36.691Z,35.41
2022-08-03T14:13:04.442Z,35.41
2022-08-03T14:15:37.778Z,35.37
2022-08-03T14:18:07.068Z,35.10
2022-08-03T14:20:47.709Z,35.29
2022-08-03T14:23:20.256Z,35.35
2022-08-03T14:25:56.274Z,35.62
2022-08-03T14:28:26.855Z,35.19
2022-08-03T14:30:55.770Z,35.56
2022-08-03T14:33:22.950Z,35.67
2022-08-03T14:35:50.245Z,35.84
2022-08-03T14:38:17.905Z,36.08
2022-08-03T14:40:44.772Z,36.14
2022-08-03T14:43:14.211Z,35.97
2022-08-03T14:45:41.424Z,35.86
2022-08-03T14:50:28.714Z,35.92
2022-08-03T14:50:55.373Z,35.83
2022-08-03T14:53:22.790Z,35.66
2022-08-03T14:55:51.539Z,35.67
2022-08-03T14:58:23.044Z,35.75
2022-08-03T15:00:51.880Z,35.80
2022-08-03T15:03:23.004Z,36.09
2022-08-03T15:05:51.057Z,36.32
2022-08-03T15:08:17.649Z,36.45
2022-08-03T15:10:45.347Z,36.29
2022-08-03T15:13:13.292Z,36.55
2022-08-03T15:15:40.308Z,36.61
2022-08-03T15:18:07.200Z,36.85
2022-08-03T15:20:43.877Z,36.91
2022-08-03T15:23:18.332Z,37.72
2022-08-03T15:26:03.567Z,39.24
2022-08-03T15:28:37.470Z,40.91
2022-08-03T15:31:05.888Z,42.38
2022-08-03T15:33:32.783Z,43.80
2022-08-03T15:36:01.935Z,44.73
2022-08-03T15:38:28.555Z,45.04
2022-08-03T15:40:55.588Z,45.70
2022-08-03T15:43:23.514Z,45.60
2022-08-03T15:46:12.816Z,45.93
2022-08-03T15:48:37.330Z,45.17
2022-08-03T15:51:05.314Z,46.87
2022-08-03T15:53:31.805Z,48.27
2022-08-03T15:56:05.242Z,47.30
2022-08-03T15:59:09.446Z,47.64
2022-08-03T16:01:25.443Z,48.38
2022-08-03T16:03:52.172Z,48.19
2022-08-03T16:06:18.825Z,48.55
2022-08-03T16:08:56.617Z,49.07
2022-08-03T16:11:23.443Z,49.25
2022-08-03T16:14:13.072Z,50.01
2022-08-03T16:16:42.339Z,50.50
2022-08-03T16:19:09.008Z,50.67
2022-08-03T16:21:47.310Z,50.75
2022-08-03T16:24:17.479Z,50.41
2022-08-03T16:26:50.881Z,49.47
2022-08-03T16:29:22.324Z,50.07
2022-08-03T16:31:50.965Z,48.77
2022-08-03T16:34:18.064Z,45.93
2022-08-03T16:36:45.662Z,44.11
2022-08-03T16:39:12.455Z,42.71
2022-08-03T16:41:53.923Z,41.84
2022-08-03T16:44:28.912Z,40.69
2022-08-03T16:46:55.694Z,39.87
2022-08-03T16:49:55.396Z,39.27
2022-08-03T16:52:10.460Z,38.50
2022-08-03T16:54:39.716Z,37.74
2022-08-03T16:57:07.215Z,37.05
2022-08-03T16:59:36.562Z,36.53
2022-08-03T17:02:10.186Z,36.15
2022-08-03T17:04:40.387Z,35.87
2022-08-03T17:07:08.948Z,35.63
2022-08-03T17:09:46.775Z,35.39
2022-08-03T17:12:16.791Z,35.21
2022-08-03T17:14:44.841Z,35.06
2022-08-03T17:17:17.899Z,34.82
2022-08-03T17:19:47.441Z,34.65
2022-08-03T17:22:23.888Z,34.53
2022-08-03T17:24:52.855Z,34.40
2022-08-03T17:28:48.763Z,34.32
2022-08-03T17:30:15.966Z,34.15
2022-08-03T17:32:52.622Z,33.98
2022-08-03T17:35:24.483Z,33.87
2022-08-03T17:38:03.703Z,33.79
2022-08-03T17:40:32.710Z,33.68
2022-08-03T17:43:00.994Z,33.64
2022-08-03T17:45:51.907Z,33.55
2022-08-03T17:48:18.470Z,33.46
2022-08-03T17:51:15.544Z,33.41
2022-08-03T17:54:18.373Z,33.35
2022-08-03T17:57:06.323Z,33.27
2022-08-03T18:00:27.425Z,33.18
2022-08-03T18:03:20.949Z,33.04
2022-08-03T18:06:08.976Z,32.95
2022-08-03T18:08:46.242Z,32.87
2022-08-03T18:11:19.814Z,32.78
2022-08-03T18:13:57.716Z,32.71
2022-08-03T18:16:30.075Z,32.60
2022-08-03T18:19:00.439Z,32.49
2022-08-03T18:22:01.998Z,32.41
2022-08-03T18:24:25.666Z,32.32
2022-08-03T18:26:55.482Z,32.19
2022-08-03T18:29:29.904Z,32.08
2022-08-03T18:32:03.214Z,32.09
2022-08-03T18:34:34.275Z,31.97
2022-08-03T18:37:04.353Z,31.92
2022-08-03T18:39:49.287Z,31.70
2022-08-03T18:42:19.749Z,31.69
2022-08-03T18:44:55.878Z,31.56
2022-08-03T18:47:52.866Z,31.43
2022-08-03T18:50:48.162Z,31.32
2022-08-03T18:54:03.569Z,31.21
2022-08-03T18:56:14.647Z,31.14
2022-08-03T18:59:02.478Z,31.04
2022-08-03T19:05:04.625Z,30.68
2022-08-03T19:07:36.962Z,30.48
2022-08-03T19:10:17.179Z,30.39
2022-08-03T19:12:51.245Z,30.17
2022-08-03T19:15:36.416Z,30.04
2022-08-03T19:18:11.857Z,29.97
2022-08-03T19:20:51.526Z,30.00
2022-08-03T19:28:56.654Z,29.59
2022-08-03T19:31:34.869Z,29.55
2022-08-03T19:34:15.560Z,29.48
2022-08-03T19:36:49.756Z,29.42
2022-08-03T19:39:22.534Z,29.36
2022-08-03T19:42:08.010Z,29.31
2022-08-03T19:44:50.505Z,29.23
2022-08-03T19:47:50.867Z,29.11
2022-08-03T19:50:20.733Z,28.90
2022-08-03T19:52:55.859Z,28.91
2022-08-03T19:55:49.219Z,28.87
2022-08-03T19:58:24.438Z,28.76
2022-08-03T20:01:19.150Z,28.67
2022-08-03T20:03:56.794Z,28.49
2022-08-03T20:06:26.699Z,28.39
2022-08-03T20:08:55.395Z,28.22
2022-08-03T20:15:06.882Z,28.09
2022-08-03T20:17:56.617Z,28.05
2022-08-03T20:20:37.634Z,27.95
2022-08-03T20:23:17.478Z,27.93
2022-08-03T20:25:59.789Z,27.82
2022-08-03T20:28:49.750Z,27.78
2022-08-03T20:31:32.543Z,27.71
2022-08-03T20:34:03.446Z,27.61
2022-08-03T20:36:36.281Z,27.49
2022-08-03T20:39:07.718Z,27.41
2022-08-03T20:41:35.937Z,27.33
2022-08-03T20:44:04.364Z,27.22
2022-08-03T20:46:44.124Z,27.06
2022-08-03T20:49:25.529Z,27.00
2022-08-03T20:51:53.690Z,26.84
2022-08-03T20:54:29.494Z,26.79
2022-08-03T20:57:04.182Z,26.71
2022-08-03T20:59:47.057Z,26.71
2022-08-03T21:02:30.112Z,26.64
2022-08-03T21:04:57.867Z,26.55
2022-08-03T21:10:15.475Z,26.46
2022-08-03T21:13:12.285Z,26.49
2022-08-03T21:13:15.443Z,26.44
2022-08-03T21:16:12.890Z,26.32
2022-08-03T21:18:45.793Z,26.24
2022-08-03T21:21:15.145Z,26.19
2022-08-03T21:23:48.798Z,26.09
2022-08-03T21:26:18.241Z,26.08
2022-08-03T21:28:46.717Z,26.01
2022-08-03T21:31:14.150Z,26.05
2022-08-03T21:33:49.643Z,26.10
2022-08-03T21:36:16.558Z,26.09
2022-08-03T21:38:44.004Z,26.13
2022-08-03T21:41:22.595Z,26.02
2022-08-03T21:43:49.129Z,26.03
2022-08-03T21:46:19.370Z,25.93
2022-08-03T21:48:51.285Z,25.86
2022-08-03T21:51:20.030Z,25.87
2022-08-03T21:54:02.491Z,25.75
2022-08-03T21:56:36.793Z,25.71
2022-08-03T21:59:08.633Z,25.74
2022-08-03T22:01:36.454Z,25.66
2022-08-03T22:04:11.867Z,25.66
2022-08-03T22:06:42.299Z,25.55
2022-08-03T22:09:12.334Z,25.60
2022-08-03T22:11:39.794Z,25.54
2022-08-03T22:14:06.457Z,25.47
2022-08-03T22:16:35.206Z,25.53
2022-08-03T22:19:01.752Z,25.50
2022-08-03T22:21:35.771Z,25.44
2022-08-03T22:24:05.220Z,25.42
2022-08-03T22:26:35.228Z,25.32
2022-08-03T22:29:07.325Z,25.30
2022-08-03T22:31:58.011Z,25.28
2022-08-03T22:34:26.690Z,25.30
2022-08-03T22:36:57.188Z,25.22
2022-08-03T22:39:29.532Z,25.13
2022-08-03T22:41:59.927Z,25.10
2022-08-03T22:44:27.532Z,25.07
2022-08-03T22:46:58.024Z,24.99
2022-08-03T22:49:27.043Z,24.96
2022-08-03T22:51:56.005Z,24.97
2022-08-03T22:54:23.166Z,24.98
2022-08-03T22:56:50.862Z,24.96
2022-08-03T22:59:40.437Z,24.90
2022-08-03T23:02:20.498Z,24.78
2022-08-03T23:04:55.036Z,24.75
2022-08-03T23:07:31.489Z,24.69
2022-08-03T23:10:00.469Z,24.68
2022-08-03T23:12:29.646Z,24.65
2022-08-03T23:15:00.885Z,24.61
2022-08-03T23:17:30.833Z,24.63
2022-08-03T23:20:05.111Z,24.62
2022-08-03T23:22:35.780Z,24.46
2022-08-03T23:25:04.671Z,24.45
2022-08-03T23:27:33.347Z,24.40
2022-08-03T23:30:01.567Z,24.44
2022-08-03T23:32:30.893Z,24.41
2022-08-03T23:35:20.971Z,24.35
2022-08-03T23:38:04.657Z,24.26
2022-08-03T23:40:36.820Z,24.20
2022-08-03T23:43:05.097Z,24.18
2022-08-03T23:45:35.024Z,24.08
2022-08-03T23:48:01.584Z,24.03
2022-08-03T23:50:40.359Z,23.98
2022-08-03T23:53:41.290Z,23.92
2022-08-03T23:56:37.141Z,23.84
2022-08-03T23:59:16.716Z,23.79
